createdAt,value
2023-01-29T00:02:12.374Z,80.74
2023-01-29T00:04:39.311Z,80.67
2023-01-29T00:07:06.435Z,80.51
2023-01-29T00:09:33.421Z,80.57
2023-01-29T00:12:00.416Z,80.45
2023-01-29T00:14:27.645Z,80.36
2023-01-29T00:16:55.092Z,80.90
2023-01-29T00:19:22.244Z,80.59
2023-01-29T00:21:49.217Z,80.79
2023-01-29T00:24:16.389Z,80.83
2023-01-29T00:26:43.447Z,80.93
2023-01-29T00:29:10.849Z,80.83
2023-01-29T00:31:38.079Z,80.81
2023-01-29T00:34:05.124Z,80.88
2023-01-29T00:36:32.072Z,80.77
2023-01-29T00:39:02.701Z,80.87
2023-01-29T00:41:51.142Z,80.59
2023-01-29T00:44:37.313Z,80.96
2023-01-29T00:47:05.437Z,80.82
2023-01-29T00:49:32.475Z,80.72
2023-01-29T00:52:17.741Z,80.79
2023-01-29T00:54:44.726Z,80.76
2023-01-29T00:57:11.716Z,80.95
2023-01-29T00:59:38.732Z,80.84
2023-01-29T01:02:24.392Z,80.85
2023-01-29T01:04:51.480Z,80.66
2023-01-29T01:07:18.517Z,80.95
2023-01-29T01:10:11.832Z,80.73
2023-01-29T01:12:38.896Z,80.87
2023-01-29T01:15:06.395Z,80.64
2023-01-29T01:17:33.370Z,80.62
2023-01-29T01:20:00.317Z,80.63
2023-01-29T01:22:27.821Z,80.47
2023-01-29T01:24:54.729Z,80.46
2023-01-29T01:27:21.710Z,80.78
2023-01-29T01:29:48.708Z,80.52
2023-01-29T01:32:16.064Z,80.75
2023-01-29T01:34:45.335Z,80.69
2023-01-29T01:37:12.336Z,80.74
2023-01-29T01:39:39.254Z,80.87
2023-01-29T01:42:12.685Z,80.76
2023-01-29T01:45:01.198Z,80.84
2023-01-29T01:47:44.354Z,80.79
2023-01-29T01:50:35.572Z,80.91
2023-01-29T01:53:19.137Z,81.11
2023-01-29T01:55:57.839Z,81.16
2023-01-29T01:58:33.884Z,81.05
2023-01-29T02:01:02.467Z,81.15
2023-01-29T02:03:55.004Z,81.12
2023-01-29T02:06:40.500Z,81.21
2023-01-29T02:09:38.820Z,81.13
2023-01-29T02:12:12.204Z,81.13
2023-01-29T02:14:41.458Z,81.22
2023-01-29T02:17:12.196Z,81.21
2023-01-29T02:20:19.881Z,81.27
2023-01-29T02:23:14.609Z,81.38
2023-01-29T02:26:27.279Z,81.30
2023-01-29T02:29:26.997Z,81.54
2023-01-29T02:32:21.559Z,81.52
2023-01-29T02:35:37.830Z,81.46
2023-01-29T02:38:38.666Z,81.48
2023-01-29T02:41:24.061Z,81.46
2023-01-29T02:44:10.216Z,81.68
2023-01-29T02:47:16.655Z,81.52
2023-01-29T02:49:49.401Z,81.80
2023-01-29T02:52:31.590Z,81.87
2023-01-29T02:55:13.880Z,81.68
2023-01-29T02:57:44.903Z,81.69
2023-01-29T03:00:39.405Z,81.74
2023-01-29T03:03:13.021Z,82.00
2023-01-29T03:06:06.349Z,81.96
2023-01-29T03:08:50.161Z,82.07
2023-01-29T03:11:18.258Z,82.21
2023-01-29T03:13:57.431Z,82.19
2023-01-29T03:16:38.272Z,81.97
2023-01-29T03:19:34.498Z,81.75
2023-01-29T03:22:04.776Z,81.75
2023-01-29T03:24:57.737Z,82.01
2023-01-29T03:27:50.460Z,81.79
2023-01-29T03:30:38.746Z,82.02
2023-01-29T03:33:10.382Z,82.02
2023-01-29T03:35:56.442Z,82.00
2023-01-29T03:38:29.542Z,82.07
2023-01-29T03:41:06.806Z,81.98
2023-01-29T03:44:01.707Z,81.89
2023-01-29T03:47:09.322Z,82.04
2023-01-29T03:50:02.414Z,82.22
2023-01-29T03:52:50.842Z,81.92
2023-01-29T03:55:35.472Z,82.21
2023-01-29T03:58:23.918Z,82.37
2023-01-29T04:01:11.214Z,82.61
2023-01-29T04:03:42.471Z,82.68
2023-01-29T04:06:13.675Z,82.76
2023-01-29T04:09:03.618Z,82.69
2023-01-29T04:11:33.771Z,82.81
2023-01-29T04:14:00.887Z,82.88
2023-01-29T04:16:35.083Z,82.70
2023-01-29T04:19:02.307Z,82.78
2023-01-29T04:21:32.882Z,83.06
2023-01-29T04:23:59.936Z,83.00
2023-01-29T04:26:42.860Z,83.00
2023-01-29T04:29:38.805Z,83.23
2023-01-29T04:32:28.877Z,83.38
2023-01-29T04:35:08.868Z,83.54
2023-01-29T04:37:50.902Z,83.49
2023-01-29T04:40:33.888Z,83.56
2023-01-29T04:43:41.489Z,83.59
2023-01-29T04:46:46.586Z,83.71
2023-01-29T04:49:45.182Z,84.09
2023-01-29T04:52:45.490Z,83.98
2023-01-29T04:55:33.417Z,84.11
2023-01-29T04:58:12.575Z,84.03
2023-01-29T05:00:45.569Z,84.27
2023-01-29T05:03:15.580Z,84.34
2023-01-29T05:05:46.927Z,84.37
2023-01-29T05:08:19.305Z,84.55
2023-01-29T05:10:48.787Z,84.64
2023-01-29T05:13:16.341Z,84.77
2023-01-29T05:16:13.189Z,85.01
2023-01-29T05:18:41.080Z,85.24
2023-01-29T05:21:09.380Z,85.34
2023-01-29T05:23:36.791Z,85.58
2023-01-29T05:26:04.802Z,85.81
2023-01-29T05:28:31.848Z,85.74
2023-01-29T05:30:59.021Z,86.20
2023-01-29T05:33:29.448Z,86.57
2023-01-29T05:35:59.375Z,86.44
2023-01-29T05:38:26.451Z,86.71
2023-01-29T05:40:54.088Z,86.90
2023-01-29T05:43:24.807Z,87.20
2023-01-29T05:46:00.274Z,87.35
2023-01-29T05:48:29.163Z,87.57
2023-01-29T05:51:05.929Z,87.71
2023-01-29T05:53:34.040Z,87.86
2023-01-29T05:56:05.533Z,87.80
2023-01-29T05:58:33.967Z,87.86
2023-01-29T06:01:22.464Z,87.97
2023-01-29T06:03:49.507Z,88.37
2023-01-29T06:06:17.053Z,88.33
2023-01-29T06:08:44.303Z,88.40
2023-01-29T06:11:14.420Z,88.68
2023-01-29T06:13:41.590Z,88.73
2023-01-29T06:16:10.436Z,88.81
2023-01-29T06:18:39.153Z,88.81
2023-01-29T06:21:09.419Z,88.90
2023-01-29T06:23:36.917Z,89.23
2023-01-29T06:26:16.830Z,89.27
2023-01-29T06:28:45.999Z,89.29
2023-01-29T06:31:32.995Z,89.35
2023-01-29T06:33:59.978Z,89.35
2023-01-29T06:36:27.036Z,89.46
2023-01-29T06:38:53.981Z,89.70
2023-01-29T06:41:25.452Z,89.77
2023-01-29T06:43:52.984Z,89.91
2023-01-29T06:46:20.102Z,89.95
2023-01-29T06:48:47.191Z,89.83
2023-01-29T06:51:14.273Z,89.99
2023-01-29T06:53:45.830Z,90.13
2023-01-29T06:56:13.388Z,89.95
2023-01-29T06:58:40.426Z,90.14
2023-01-29T07:01:17.531Z,90.09
2023-01-29T07:03:56.125Z,90.27
2023-01-29T07:06:30.463Z,90.25
2023-01-29T07:08:57.554Z,90.14
2023-01-29T07:11:24.827Z,90.40
2023-01-29T07:13:51.796Z,90.18
2023-01-29T07:16:19.330Z,90.43
2023-01-29T07:18:53.548Z,90.53
2023-01-29T07:21:20.570Z,90.39
2023-01-29T07:23:47.639Z,90.61
2023-01-29T07:26:14.594Z,90.74
2023-01-29T07:28:42.036Z,90.76
2023-01-29T07:31:12.722Z,90.83
2023-01-29T07:33:39.819Z,91.08
2023-01-29T07:36:11.995Z,91.16
2023-01-29T07:38:38.976Z,91.20
2023-01-29T07:41:06.215Z,91.29
2023-01-29T07:43:33.349Z,91.35
2023-01-29T07:46:04.821Z,91.49
2023-01-29T07:48:32.007Z,91.42
2023-01-29T07:50:59.155Z,91.46
2023-01-29T07:53:27.478Z,91.50
2023-01-29T07:55:54.440Z,91.61
2023-01-29T07:58:21.409Z,91.64
2023-01-29T08:00:48.410Z,91.93
2023-01-29T08:03:20.111Z,92.22
2023-01-29T08:05:47.848Z,92.08
2023-01-29T08:08:15.400Z,92.10
2023-01-29T08:10:43.051Z,92.00
2023-01-29T08:13:10.142Z,92.34
2023-01-29T08:15:39.199Z,92.47
2023-01-29T08:18:07.009Z,92.69
2023-01-29T08:20:34.008Z,92.86
2023-01-29T08:23:12.938Z,93.14
2023-01-29T08:25:40.012Z,93.29
2023-01-29T08:28:07.278Z,93.39
2023-01-29T08:30:35.228Z,93.61
2023-01-29T08:33:04.493Z,93.83
2023-01-29T08:35:31.977Z,94.14
2023-01-29T08:38:03.558Z,93.98
2023-01-29T08:40:34.168Z,94.10
2023-01-29T08:43:09.127Z,94.21
2023-01-29T08:45:42.354Z,94.28
2023-01-29T08:48:10.188Z,94.55
2023-01-29T08:50:37.879Z,94.36
2023-01-29T08:53:08.241Z,94.61
2023-01-29T08:55:42.525Z,94.76
2023-01-29T08:58:11.810Z,94.45
2023-01-29T09:00:39.286Z,94.68
2023-01-29T09:03:07.989Z,94.61
2023-01-29T09:05:39.626Z,94.77
2023-01-29T09:08:08.087Z,94.75
2023-01-29T09:10:35.433Z,94.89
2023-01-29T09:13:02.651Z,95.01
2023-01-29T09:15:29.622Z,95.02
2023-01-29T09:17:56.704Z,95.20
2023-01-29T09:20:23.764Z,94.77
2023-01-29T09:22:53.653Z,95.10
2023-01-29T09:25:20.625Z,95.27
2023-01-29T09:27:47.591Z,95.05
2023-01-29T09:30:14.996Z,94.95
2023-01-29T09:32:57.518Z,94.91
2023-01-29T09:35:24.755Z,95.03
2023-01-29T09:37:52.657Z,94.85
2023-01-29T09:40:57.419Z,94.94
2023-01-29T09:43:44.014Z,94.78
2023-01-29T09:46:41.265Z,94.57
2023-01-29T09:49:32.435Z,94.69
2023-01-29T09:52:05.985Z,94.58
2023-01-29T09:55:00.031Z,94.53
2023-01-29T09:57:42.822Z,94.30
2023-01-29T10:00:36.592Z,94.43
2023-01-29T10:03:54.665Z,94.46
2023-01-29T10:06:46.456Z,94.11
2023-01-29T10:09:59.829Z,94.17
2023-01-29T10:12:59.029Z,93.86
2023-01-29T10:15:57.821Z,93.46
2023-01-29T10:18:33.767Z,92.95
2023-01-29T10:21:19.615Z,92.74
2023-01-29T10:24:22.441Z,92.87
2023-01-29T10:26:52.406Z,93.05
2023-01-29T10:29:22.110Z,92.88
2023-01-29T10:32:05.964Z,91.79
2023-01-29T10:34:46.905Z,91.78
2023-01-29T10:37:34.540Z,91.17
2023-01-29T10:40:02.266Z,91.25
2023-01-29T10:43:04.850Z,90.37
2023-01-29T10:45:48.816Z,89.78
2023-01-29T10:48:47.527Z,89.59
2023-01-29T10:51:42.033Z,89.01
2023-01-29T10:54:42.483Z,88.64
2023-01-29T10:57:49.044Z,88.30
2023-01-29T11:00:38.755Z,88.04
2023-01-29T11:03:27.823Z,87.82
2023-01-29T11:06:41.338Z,86.98
2023-01-29T11:09:11.259Z,86.90
2023-01-29T11:11:59.516Z,86.54
2023-01-29T11:14:44.640Z,86.28
2023-01-29T11:17:22.014Z,85.74
2023-01-29T11:19:51.762Z,85.76
2023-01-29T11:22:25.602Z,85.21
2023-01-29T11:25:11.107Z,85.35
2023-01-29T11:27:50.190Z,85.22
2023-01-29T11:30:36.290Z,84.92
2023-01-29T11:33:20.727Z,84.81
2023-01-29T11:35:47.906Z,84.50
2023-01-29T11:38:23.331Z,84.21
2023-01-29T11:40:50.747Z,83.86
2023-01-29T11:43:26.431Z,83.41
2023-01-29T11:45:57.755Z,82.77
2023-01-29T11:48:51.377Z,82.95
2023-01-29T11:51:27.649Z,82.34
2023-01-29T11:53:59.066Z,82.35
2023-01-29T11:56:39.382Z,82.16
2023-01-29T11:59:08.359Z,82.43
2023-01-29T12:01:39.304Z,82.09
2023-01-29T12:04:39.219Z,81.91
2023-01-29T12:07:14.898Z,81.66
2023-01-29T12:09:42.334Z,81.87
2023-01-29T12:12:40.844Z,81.33
2023-01-29T12:15:25.049Z,81.16
2023-01-29T12:18:03.849Z,81.14
2023-01-29T12:20:46.897Z,80.81
2023-01-29T12:23:49.116Z,80.76
2023-01-29T12:26:26.070Z,80.66
2023-01-29T12:29:21.975Z,80.91
2023-01-29T12:32:07.032Z,80.52
2023-01-29T12:34:42.824Z,80.74
2023-01-29T12:37:43.136Z,80.53
2023-01-29T12:40:19.207Z,79.96
2023-01-29T12:42:52.204Z,79.71
2023-01-29T12:45:24.020Z,79.93
2023-01-29T12:48:02.236Z,79.97
2023-01-29T12:50:33.486Z,80.24
2023-01-29T12:53:18.711Z,79.90
2023-01-29T12:55:55.328Z,80.13
2023-01-29T12:58:28.711Z,80.37
2023-01-29T13:01:03.695Z,79.81
2023-01-29T13:03:48.169Z,80.08
2023-01-29T13:06:26.703Z,80.15
2023-01-29T13:08:59.395Z,80.32
2023-01-29T13:11:38.255Z,80.29
2023-01-29T13:14:50.534Z,80.23
2023-01-29T13:17:36.337Z,80.40
2023-01-29T13:20:30.336Z,80.31
2023-01-29T13:23:06.522Z,80.06
2023-01-29T13:25:33.552Z,79.96
2023-01-29T13:28:00.994Z,80.25
2023-01-29T13:30:31.142Z,80.16
2023-01-29T13:33:09.862Z,80.11
2023-01-29T13:35:43.034Z,80.31
2023-01-29T13:38:30.546Z,80.37
2023-01-29T13:41:03.695Z,80.30
2023-01-29T13:43:39.945Z,80.60
2023-01-29T13:46:15.127Z,80.73
2023-01-29T13:48:58.294Z,80.56
2023-01-29T13:51:35.693Z,80.51
2023-01-29T13:54:18.656Z,80.58
2023-01-29T13:57:03.314Z,81.01
2023-01-29T13:59:53.265Z,80.86
2023-01-29T14:02:28.105Z,80.96
2023-01-29T14:05:32.204Z,80.86
2023-01-29T14:08:34.393Z,81.45
2023-01-29T14:11:21.885Z,81.63
2023-01-29T14:13:52.299Z,81.62
2023-01-29T14:16:19.169Z,81.55
2023-01-29T14:19:01.411Z,82.19
2023-01-29T14:21:34.404Z,82.07
2023-01-29T14:24:22.196Z,82.39
2023-01-29T14:26:54.659Z,82.60
2023-01-29T14:29:39.433Z,82.55
2023-01-29T14:32:06.295Z,82.94
2023-01-29T14:34:45.293Z,83.37
2023-01-29T14:37:25.933Z,83.63
2023-01-29T14:39:59.371Z,83.97
2023-01-29T14:42:58.710Z,84.31
2023-01-29T14:45:33.569Z,84.52
2023-01-29T14:48:10.735Z,84.69
2023-01-29T14:50:41.129Z,84.97
2023-01-29T14:53:40.222Z,84.94
2023-01-29T14:56:20.957Z,85.33
2023-01-29T14:59:19.743Z,85.79
2023-01-29T15:01:58.913Z,85.97
2023-01-29T15:04:47.998Z,86.03
2023-01-29T15:07:36.166Z,86.26
2023-01-29T15:10:24.100Z,86.65
2023-01-29T15:13:04.686Z,86.79
2023-01-29T15:15:38.363Z,87.11
2023-01-29T15:18:16.279Z,87.32
2023-01-29T15:20:46.600Z,87.41
2023-01-29T15:23:34.527Z,87.73
2023-01-29T15:26:06.494Z,87.70
2023-01-29T15:28:35.571Z,87.96
2023-01-29T15:31:07.993Z,88.14
2023-01-29T15:33:38.688Z,88.33
2023-01-29T15:36:08.233Z,88.48
2023-01-29T15:38:36.059Z,88.68
2023-01-29T15:41:23.756Z,88.81
2023-01-29T15:43:57.916Z,88.94
2023-01-29T15:46:39.620Z,88.96
2023-01-29T15:49:11.853Z,89.22
2023-01-29T15:51:39.636Z,89.50
2023-01-29T15:54:15.634Z,89.56
2023-01-29T15:56:51.377Z,89.62
2023-01-29T15:59:23.239Z,89.52
2023-01-29T16:01:53.568Z,89.59
2023-01-29T16:04:31.799Z,89.75
2023-01-29T16:07:00.844Z,89.79
2023-01-29T16:09:30.607Z,89.93
2023-01-29T16:11:59.278Z,89.91
2023-01-29T16:14:28.052Z,90.18
2023-01-29T16:16:55.250Z,90.17
2023-01-29T16:19:27.426Z,90.18
2023-01-29T16:22:04.383Z,90.16
2023-01-29T16:24:39.177Z,90.14
2023-01-29T16:27:13.777Z,90.03
2023-01-29T16:29:43.441Z,90.21
2023-01-29T16:32:13.873Z,90.59
2023-01-29T16:35:04.423Z,90.25
2023-01-29T16:37:36.438Z,90.65
2023-01-29T16:40:35.516Z,90.45
2023-01-29T16:43:17.499Z,90.40
2023-01-29T16:46:15.958Z,90.56
2023-01-29T16:48:42.986Z,90.58
2023-01-29T16:51:27.088Z,90.36
2023-01-29T16:54:23.337Z,90.48
2023-01-29T16:56:59.842Z,90.44
2023-01-29T16:59:36.434Z,90.77
2023-01-29T17:02:04.652Z,90.37
2023-01-29T17:04:35.560Z,90.77
2023-01-29T17:07:03.008Z,90.30
2023-01-29T17:09:35.345Z,90.22
2023-01-29T17:12:08.641Z,90.38
2023-01-29T17:14:42.022Z,90.40
2023-01-29T17:17:16.364Z,90.53
2023-01-29T17:19:45.540Z,90.41
2023-01-29T17:22:15.595Z,90.66
2023-01-29T17:24:43.004Z,90.58
2023-01-29T17:27:22.542Z,90.45
2023-01-29T17:29:53.516Z,90.51
2023-01-29T17:32:20.686Z,90.35
2023-01-29T17:34:47.664Z,90.37
2023-01-29T17:37:15.943Z,90.21
2023-01-29T17:39:50.436Z,90.30
2023-01-29T17:42:20.164Z,90.23
2023-01-29T17:44:47.151Z,90.31
2023-01-29T17:47:18.022Z,90.37
2023-01-29T17:49:45.121Z,90.54
2023-01-29T17:52:14.588Z,90.63
2023-01-29T17:54:41.552Z,90.52
2023-01-29T17:57:14.065Z,90.36
2023-01-29T17:59:41.020Z,90.31
2023-01-29T18:02:08.753Z,90.28
2023-01-29T18:04:55.823Z,90.50
2023-01-29T18:07:22.824Z,90.84
2023-01-29T18:09:49.792Z,90.51
2023-01-29T18:12:16.764Z,90.46
2023-01-29T18:14:43.722Z,90.51
2023-01-29T18:17:10.687Z,90.51
2023-01-29T18:19:37.640Z,90.18
2023-01-29T18:22:04.701Z,90.21
2023-01-29T18:24:31.724Z,90.35
2023-01-29T18:26:58.663Z,90.39
2023-01-29T18:29:30.029Z,90.60
2023-01-29T18:31:57.358Z,90.20
2023-01-29T18:34:26.672Z,90.42
2023-01-29T18:36:53.658Z,90.26
2023-01-29T18:39:23.004Z,90.32
2023-01-29T18:41:49.941Z,90.36
2023-01-29T18:44:17.113Z,90.33
2023-01-29T18:46:44.095Z,90.19
2023-01-29T18:49:11.076Z,90.22
2023-01-29T18:51:38.153Z,90.15
2023-01-29T18:54:05.274Z,90.30
2023-01-29T18:56:32.223Z,90.29
2023-01-29T18:58:59.214Z,90.08
2023-01-29T19:01:28.836Z,90.29
2023-01-29T19:03:58.191Z,89.93
2023-01-29T19:06:27.645Z,90.00
2023-01-29T19:08:54.613Z,90.20
2023-01-29T19:11:21.547Z,90.63
2023-01-29T19:13:53.313Z,90.16
2023-01-29T19:16:20.433Z,90.18
2023-01-29T19:18:50.434Z,89.89
2023-01-29T19:21:18.228Z,89.88
2023-01-29T19:23:45.257Z,89.67
2023-01-29T19:26:13.436Z,89.53
2023-01-29T19:28:42.827Z,89.44
2023-01-29T19:31:12.464Z,89.65
2023-01-29T19:33:42.065Z,89.79
2023-01-29T19:36:09.543Z,89.73
2023-01-29T19:38:38.716Z,89.92
2023-01-29T19:41:06.436Z,89.81
2023-01-29T19:43:33.530Z,89.96
2023-01-29T19:46:02.134Z,89.98
2023-01-29T19:48:34.699Z,89.78
2023-01-29T19:51:05.228Z,89.94
2023-01-29T19:53:32.221Z,89.88
2023-01-29T19:56:05.997Z,89.78
2023-01-29T19:58:34.259Z,89.62
2023-01-29T20:01:12.569Z,89.66
2023-01-29T20:03:47.932Z,89.11
2023-01-29T20:06:20.447Z,89.07
2023-01-29T20:08:47.480Z,89.00
2023-01-29T20:11:16.351Z,88.73
2023-01-29T20:13:47.078Z,88.85
2023-01-29T20:16:14.311Z,88.86
2023-01-29T20:18:41.317Z,88.65
2023-01-29T20:21:12.269Z,88.52
2023-01-29T20:23:40.080Z,88.48
2023-01-29T20:26:15.801Z,88.42
2023-01-29T20:28:45.641Z,88.42
2023-01-29T20:31:12.794Z,88.24
2023-01-29T20:33:40.412Z,88.16
2023-01-29T20:36:12.373Z,87.97
2023-01-29T20:38:41.806Z,88.15
2023-01-29T20:41:16.382Z,88.30
2023-01-29T20:43:44.925Z,88.43
2023-01-29T20:46:14.766Z,88.33
2023-01-29T20:48:42.277Z,88.37
2023-01-29T20:51:16.230Z,88.52
2023-01-29T20:53:46.367Z,88.60
2023-01-29T20:56:15.424Z,88.64
2023-01-29T20:58:44.340Z,88.80
2023-01-29T21:01:15.699Z,88.67
2023-01-29T21:03:43.167Z,88.87
2023-01-29T21:06:11.664Z,88.85
2023-01-29T21:08:39.952Z,88.51
2023-01-29T21:11:08.828Z,88.61
2023-01-29T21:13:36.537Z,88.45
2023-01-29T21:16:04.284Z,88.45
2023-01-29T21:18:32.269Z,88.48
2023-01-29T21:20:59.372Z,88.59
2023-01-29T21:23:26.335Z,88.50
2023-01-29T21:25:53.283Z,88.49
2023-01-29T21:28:20.360Z,88.27
2023-01-29T21:30:47.969Z,88.23
2023-01-29T21:33:14.933Z,88.37
2023-01-29T21:35:41.957Z,88.27
2023-01-29T21:38:09.294Z,88.23
2023-01-29T21:40:36.407Z,87.97
2023-01-29T21:43:13.305Z,88.11
2023-01-29T21:45:40.923Z,88.01
2023-01-29T21:48:09.890Z,87.98
2023-01-29T21:50:37.825Z,88.29
2023-01-29T21:53:04.924Z,88.14
2023-01-29T21:55:32.563Z,88.10
2023-01-29T21:58:00.474Z,87.99
2023-01-29T22:00:28.146Z,87.86
2023-01-29T22:02:55.258Z,88.02
2023-01-29T22:05:22.243Z,87.97
2023-01-29T22:07:51.569Z,87.95
2023-01-29T22:10:20.131Z,88.07
2023-01-29T22:12:48.325Z,87.91
2023-01-29T22:15:18.293Z,87.92
2023-01-29T22:17:45.227Z,87.91
2023-01-29T22:20:14.768Z,88.16
2023-01-29T22:22:42.087Z,87.74
2023-01-29T22:25:10.309Z,87.69
2023-01-29T22:27:37.614Z,87.76
2023-01-29T22:30:06.307Z,87.79
2023-01-29T22:32:33.827Z,87.82
2023-01-29T22:35:00.859Z,87.88
2023-01-29T22:37:27.813Z,87.81
2023-01-29T22:39:54.758Z,87.66
2023-01-29T22:42:21.773Z,87.67
2023-01-29T22:44:48.836Z,87.65
2023-01-29T22:47:16.108Z,87.28
2023-01-29T22:49:45.596Z,87.56
2023-01-29T22:52:12.715Z,87.39
2023-01-29T22:54:44.657Z,87.28
2023-01-29T22:57:14.121Z,87.21
2023-01-29T22:59:41.690Z,87.21
2023-01-29T23:02:09.403Z,87.16
2023-01-29T23:04:37.020Z,87.16
2023-01-29T23:07:05.436Z,87.02
2023-01-29T23:09:32.444Z,86.94
2023-01-29T23:11:59.426Z,86.87
2023-01-29T23:14:26.400Z,86.87
2023-01-29T23:16:53.403Z,86.90
2023-01-29T23:19:20.514Z,86.76
2023-01-29T23:21:47.475Z,86.85
2023-01-29T23:24:14.789Z,86.70
2023-01-29T23:27:00.415Z,86.64
2023-01-29T23:29:27.411Z,86.51
2023-01-29T23:31:54.576Z,86.57
2023-01-29T23:34:22.363Z,86.63
2023-01-29T23:36:49.457Z,86.42
2023-01-29T23:39:16.655Z,86.41
2023-01-29T23:41:43.959Z,86.34
2023-01-29T23:44:10.903Z,86.33
2023-01-29T23:46:37.898Z,86.27
2023-01-29T23:49:07.510Z,86.11
2023-01-29T23:51:34.525Z,85.96
2023-01-29T23:54:01.523Z,85.47
2023-01-29T23:56:28.685Z,85.76
2023-01-29T23:58:57.508Z,85.81
